Time;durP1;ratioP1;P1;durP2;ratioP2;P2;SDS_P1;SDS_P2;PMS_P1;PMS_P2;Temp;Humidity;BMP_temperature;BMP_pressure;BME280_temperature;BME280_humidity;BME280_pressure;Samples;Min_cycle;Max_cycle;Signal;HPM_P1;HPM_P2
2021/03/09 00:02:11;;;;;;;51.17;21.47;;;4.50;97.10;;;;;;4302328;33;20171;-64
2021/03/09 00:04:37;;;;;;;44.80;20.07;;;4.40;97.10;;;;;;4302487;33;20234;-67
2021/03/09 00:07:04;;;;;;;41.40;22.50;;;4.40;97.20;;;;;;4303289;33;20233;-64
2021/03/09 00:09:31;;;;;;;39.93;20.37;;;4.50;97.20;;;;;;4299755;33;20232;-65
2021/03/09 00:11:57;;;;;;;46.27;21.27;;;4.60;97.20;;;;;;4297895;33;20247;-62
2021/03/09 00:14:23;;;;;;;42.27;20.17;;;4.50;97.10;;;;;;4298595;33;20245;-66
2021/03/09 00:16:50;;;;;;;38.23;20.27;;;4.50;97.20;;;;;;4301802;33;20173;-64
2021/03/09 00:19:16;;;;;;;44.13;20.07;;;4.50;97.10;;;;;;4302797;33;20181;-63
2021/03/09 00:21:43;;;;;;;36.27;18.53;;;4.50;97.20;;;;;;4308472;33;20255;-63
2021/03/09 00:24:10;;;;;;;41.00;19.73;;;4.50;97.20;;;;;;4305220;33;20227;-63
2021/03/09 00:26:36;;;;;;;44.40;20.57;;;4.50;97.30;;;;;;4301349;33;20205;-63
2021/03/09 00:29:03;;;;;;;40.83;20.43;;;4.40;97.40;;;;;;4301709;33;20591;-64
2021/03/09 00:31:30;;;;;;;39.60;18.80;;;4.60;97.50;;;;;;4315933;33;20615;-64
2021/03/09 00:33:56;;;;;;;47.87;20.03;;;4.50;97.50;;;;;;4309516;33;20162;-64
2021/03/09 00:36:22;;;;;;;36.07;18.43;;;4.40;97.40;;;;;;4310682;33;20183;-64
2021/03/09 00:38:49;;;;;;;39.40;18.93;;;4.50;97.40;;;;;;4315987;33;20218;-64
2021/03/09 00:41:16;;;;;;;39.57;18.87;;;4.40;97.50;;;;;;4310174;33;20249;-64
2021/03/09 00:43:42;;;;;;;41.07;20.60;;;4.60;97.50;;;;;;4301517;33;20170;-64
2021/03/09 00:46:08;;;;;;;41.03;20.37;;;4.50;97.50;;;;;;4300882;33;20191;-64
2021/03/09 00:48:38;;;;;;;42.77;20.63;;;4.50;97.40;;;;;;4342181;33;20232;-64
2021/03/09 00:51:06;;;;;;;41.97;22.13;;;4.40;97.40;;;;;;4337785;33;20160;-64
2021/03/09 00:53:32;;;;;;;41.80;20.23;;;4.50;97.60;;;;;;4346333;33;20166;-64
2021/03/09 00:55:59;;;;;;;45.37;21.53;;;4.50;97.50;;;;;;4344207;33;20204;-64
2021/03/09 00:58:26;;;;;;;45.20;21.17;;;4.50;97.40;;;;;;4345792;33;20190;-64
2021/03/09 01:00:53;;;;;;;44.83;22.70;;;4.50;97.40;;;;;;4339508;33;20199;-63
2021/03/09 01:03:19;;;;;;;50.97;23.77;;;4.50;97.50;;;;;;4349919;32;20212;-64
2021/03/09 01:05:46;;;;;;;49.97;24.70;;;4.50;97.50;;;;;;4391712;32;20458;-64
2021/03/09 01:08:12;;;;;;;51.17;24.30;;;4.60;97.60;;;;;;4393577;32;20183;-64
2021/03/09 01:10:40;;;;;;;51.17;24.37;;;4.60;97.60;;;;;;4392217;32;20175;-63
2021/03/09 01:13:06;;;;;;;55.60;26.67;;;4.60;97.60;;;;;;4395915;32;20187;-63
2021/03/09 01:15:39;;;;;;;57.67;27.10;;;4.60;97.70;;;;;;4392814;32;20584;-63
2021/03/09 01:18:06;;;;;;;52.90;25.27;;;4.50;97.60;;;;;;4399841;32;20171;-63
2021/03/09 01:20:32;;;;;;;52.90;25.40;;;4.50;97.70;;;;;;4404751;32;20182;-63
2021/03/09 01:22:58;;;;;;;56.97;26.83;;;4.60;97.70;;;;;;4397964;32;20164;-63
2021/03/09 01:25:27;;;;;;;59.40;27.60;;;4.50;97.70;;;;;;4395129;32;20177;-63
2021/03/09 01:27:53;;;;;;;59.17;27.80;;;4.60;97.80;;;;;;4394218;32;20203;-63
2021/03/09 01:30:20;;;;;;;63.90;29.10;;;4.60;97.80;;;;;;4396007;32;20190;-63
2021/03/09 01:32:52;;;;;;;68.13;30.50;;;4.60;97.80;;;;;;4405860;32;20168;-63
2021/03/09 01:35:18;;;;;;;64.50;29.00;;;4.60;97.80;;;;;;4405565;32;20687;-63
2021/03/09 01:37:46;;;;;;;65.67;30.70;;;4.60;97.90;;;;;;4394579;32;20227;-63
2021/03/09 01:40:13;;;;;;;60.87;29.27;;;4.60;97.90;;;;;;4391323;32;20160;-63
2021/03/09 01:42:41;;;;;;;67.47;32.17;;;4.60;97.80;;;;;;4394905;32;20230;-63
2021/03/09 01:45:09;;;;;;;71.93;32.37;;;4.60;97.90;;;;;;4407987;32;20627;-63
2021/03/09 01:47:44;;;;;;;65.17;30.63;;;4.60;97.90;;;;;;4412784;32;20666;-63
2021/03/09 01:50:15;;;;;;;66.47;31.67;;;4.60;97.90;;;;;;4412252;32;20163;-63
2021/03/09 01:52:43;;;;;;;66.93;30.67;;;4.60;98.00;;;;;;4407897;32;20526;-63
2021/03/09 01:55:11;;;;;;;67.30;34.00;;;4.70;98.00;;;;;;4408241;32;20152;-63
2021/03/09 01:57:37;;;;;;;66.67;31.83;;;4.60;98.00;;;;;;4405513;32;20176;-63
2021/03/09 02:00:08;;;;;;;71.13;33.33;;;4.60;98.10;;;;;;4414299;32;20166;-63
2021/03/09 02:02:35;;;;;;;76.00;35.27;;;4.50;98.10;;;;;;4406227;32;20220;-63
2021/03/09 02:05:04;;;;;;;72.73;33.73;;;4.60;98.20;;;;;;4407884;32;20175;-63
2021/03/09 02:07:31;;;;;;;65.83;32.60;;;4.50;98.30;;;;;;4409979;32;20228;-63
2021/03/09 02:09:57;;;;;;;75.80;35.00;;;4.50;98.30;;;;;;4409023;32;20168;-63
2021/03/09 02:12:34;;;;;;;78.13;35.47;;;4.60;98.30;;;;;;4414592;32;20299;-63
2021/03/09 02:15:10;;;;;;;77.07;35.07;;;4.60;98.30;;;;;;4420760;32;20159;-63
2021/03/09 02:17:41;;;;;;;74.07;33.87;;;4.60;98.40;;;;;;4413853;32;20159;-63
2021/03/09 02:20:37;;;;;;;71.90;33.27;;;4.60;98.40;;;;;;4406806;32;20159;-63
2021/03/09 02:23:38;;;;;;;77.90;36.90;;;4.70;98.30;;;;;;4405404;32;20179;-63
2021/03/09 02:26:23;;;;;;;96.87;36.93;;;4.60;98.30;;;;;;4407098;32;20226;-63
2021/03/09 02:28:57;;;;;;;76.27;34.53;;;4.60;98.40;;;;;;4405574;32;20171;-63
2021/03/09 02:31:28;;;;;;;88.10;36.73;;;4.60;98.40;;;;;;4407380;32;20180;-63
2021/03/09 02:33:57;;;;;;;70.47;33.87;;;4.60;98.40;;;;;;4416434;32;20573;-63
2021/03/09 02:36:27;;;;;;;81.93;37.30;;;4.70;98.50;;;;;;4405296;32;20175;-63
2021/03/09 02:38:57;;;;;;;93.73;39.80;;;4.70;98.40;;;;;;4404947;32;20196;-63
2021/03/09 02:41:26;;;;;;;84.03;37.03;;;4.70;98.40;;;;;;4406058;32;20234;-64
2021/03/09 02:43:55;;;;;;;83.37;38.10;;;4.70;98.40;;;;;;4415908;32;20179;-62
2021/03/09 02:46:22;;;;;;;76.87;35.93;;;4.70;98.50;;;;;;4406996;32;20144;-63
2021/03/09 02:48:51;;;;;;;79.60;36.17;;;4.60;98.50;;;;;;4404586;32;20549;-63
2021/03/09 02:51:25;;;;;;;89.00;39.47;;;4.70;98.60;;;;;;4403159;32;20270;-62
2021/03/09 02:53:55;;;;;;;82.30;36.67;;;4.60;98.50;;;;;;4406424;32;20488;-62
2021/03/09 02:56:24;;;;;;;98.63;41.20;;;4.70;98.60;;;;;;4404740;32;20236;-62
2021/03/09 02:58:53;;;;;;;81.50;37.47;;;4.70;98.60;;;;;;4404989;32;20171;-63
2021/03/09 03:01:20;;;;;;;84.30;37.83;;;4.80;98.50;;;;;;4407265;32;20173;-62
2021/03/09 03:03:48;;;;;;;78.80;37.57;;;4.70;98.50;;;;;;4409032;32;20213;-62
2021/03/09 03:06:16;;;;;;;81.80;38.17;;;4.80;98.60;;;;;;4405641;32;20563;-62
2021/03/09 03:08:44;;;;;;;80.73;37.90;;;4.80;98.50;;;;;;4414176;32;20174;-62
2021/03/09 03:11:11;;;;;;;82.90;37.97;;;4.80;98.50;;;;;;4410203;32;20179;-62
2021/03/09 03:13:40;;;;;;;78.20;36.57;;;4.80;98.50;;;;;;4407210;32;20200;-63
2021/03/09 03:16:08;;;;;;;87.00;37.23;;;4.90;98.50;;;;;;4405023;32;20485;-63
2021/03/09 03:18:38;;;;;;;75.27;35.53;;;4.90;98.70;;;;;;4414312;32;20597;-63
2021/03/09 03:21:08;;;;;;;74.90;35.23;;;4.90;98.40;;;;;;4419310;32;20436;-62
2021/03/09 03:23:36;;;;;;;83.10;38.47;;;4.90;98.40;;;;;;4408252;32;20155;-62
2021/03/09 03:26:05;;;;;;;95.37;40.77;;;4.90;98.40;;;;;;4413831;32;20166;-62
2021/03/09 03:28:33;;;;;;;90.73;41.00;;;4.90;98.50;;;;;;4420589;32;20223;-62
2021/03/09 03:31:01;;;;;;;92.93;41.13;;;4.90;98.60;;;;;;4417051;32;20167;-62
2021/03/09 03:33:30;;;;;;;88.63;41.00;;;4.90;98.90;;;;;;4414645;32;20169;-62
2021/03/09 03:36:03;;;;;;;80.23;38.33;;;4.90;98.60;;;;;;4413460;32;20661;-62
2021/03/09 03:38:31;;;;;;;87.33;41.00;;;4.90;98.50;;;;;;4408252;32;20152;-62
2021/03/09 03:41:00;;;;;;;87.47;38.20;;;5.00;98.50;;;;;;4408964;32;20612;-64
2021/03/09 03:43:26;;;;;;;79.00;36.63;;;5.00;98.50;;;;;;4418021;32;20226;-63
2021/03/09 03:45:52;;;;;;;88.00;41.03;;;5.00;98.50;;;;;;4421097;32;20246;-62
2021/03/09 03:48:20;;;;;;;85.83;39.73;;;5.00;98.50;;;;;;4422668;32;20149;-63
2021/03/09 03:50:47;;;;;;;78.10;38.33;;;5.00;98.50;;;;;;4410338;32;20156;-63
2021/03/09 03:53:20;;;;;;;84.37;39.30;;;5.00;98.50;;;;;;4423020;32;20250;-62
2021/03/09 03:56:00;;;;;;;89.83;40.23;;;5.00;98.50;;;;;;4413454;32;20209;-62
2021/03/09 03:58:32;;;;;;;79.70;38.50;;;5.00;98.50;;;;;;4409463;32;20147;-62
2021/03/09 04:00:59;;;;;;;81.60;39.83;;;5.00;98.50;;;;;;4411592;32;20619;-62
2021/03/09 04:03:27;;;;;;;85.83;39.53;;;4.90;98.60;;;;;;4407766;32;20569;-63
2021/03/09 04:05:56;;;;;;;91.43;43.07;;;5.10;98.60;;;;;;4411304;32;20151;-62
2021/03/09 04:08:23;;;;;;;101.40;42.53;;;5.00;98.60;;;;;;4408441;32;20186;-63
2021/03/09 04:10:53;;;;;;;88.97;40.73;;;5.00;98.60;;;;;;4413168;32;20160;-63
2021/03/09 04:13:20;;;;;;;97.50;42.90;;;5.00;98.70;;;;;;4423239;32;20163;-63
2021/03/09 04:15:48;;;;;;;90.20;41.73;;;5.00;98.60;;;;;;4422879;32;20166;-64
2021/03/09 04:18:16;;;;;;;85.80;41.40;;;5.00;98.70;;;;;;4421360;32;20159;-64
2021/03/09 04:20:44;;;;;;;109.07;45.67;;;5.00;98.70;;;;;;4421781;32;20177;-64
2021/03/09 04:23:11;;;;;;;81.17;40.73;;;5.00;98.70;;;;;;4421873;32;20576;-64
2021/03/09 04:25:42;;;;;;;90.23;42.60;;;5.00;98.80;;;;;;4422143;32;20148;-62
2021/03/09 04:28:09;;;;;;;89.87;42.93;;;5.00;98.80;;;;;;4413157;32;20226;-64
2021/03/09 04:30:36;;;;;;;98.50;44.77;;;5.10;98.80;;;;;;4410244;32;20664;-63
2021/03/09 04:33:04;;;;;;;92.47;43.00;;;5.10;98.80;;;;;;4420191;32;20655;-63
2021/03/09 04:35:37;;;;;;;92.97;46.43;;;5.20;98.80;;;;;;4415515;32;20584;-63
2021/03/09 04:38:07;;;;;;;112.10;48.17;;;5.20;98.70;;;;;;4406983;32;20174;-64
2021/03/09 04:40:38;;;;;;;110.30;49.70;;;5.10;98.70;;;;;;4406708;32;20175;-65
2021/03/09 04:43:04;;;;;;;103.50;45.80;;;5.10;98.80;;;;;;4408732;32;20182;-64
2021/03/09 04:45:37;;;;;;;112.47;48.37;;;5.20;98.80;;;;;;4407017;32;20231;-64
2021/03/09 04:48:05;;;;;;;105.70;47.33;;;5.20;98.80;;;;;;4408156;32;20174;-64
2021/03/09 04:50:37;;;;;;;91.17;44.43;;;5.20;98.90;;;;;;4407380;32;20152;-65
2021/03/09 04:53:05;;;;;;;101.80;47.40;;;5.20;98.90;;;;;;4414752;32;20246;-64
2021/03/09 04:55:34;;;;;;;109.97;50.27;;;5.20;98.80;;;;;;4407242;32;20180;-63
2021/03/09 04:58:01;;;;;;;107.83;48.87;;;5.20;98.80;;;;;;4408505;32;20584;-64
2021/03/09 05:00:28;;;;;;;117.97;52.23;;;5.20;98.90;;;;;;4421262;32;20190;-63
2021/03/09 05:02:55;;;;;;;122.57;50.80;;;5.20;98.90;;;;;;4410364;32;20477;-63
2021/03/09 05:05:27;;;;;;;114.70;52.67;;;5.20;99.00;;;;;;4418376;32;20183;-63
2021/03/09 05:07:54;;;;;;;110.27;51.20;;;5.20;99.00;;;;;;4422564;32;20207;-63
2021/03/09 05:10:20;;;;;;;97.47;47.20;;;5.30;99.10;;;;;;4412509;32;20182;-63
2021/03/09 05:12:48;;;;;;;121.53;55.77;;;5.30;99.00;;;;;;4416035;32;20174;-64
2021/03/09 05:15:15;;;;;;;122.50;54.20;;;5.30;99.00;;;;;;4419301;32;20151;-64
2021/03/09 05:17:42;;;;;;;111.30;50.70;;;5.30;99.00;;;;;;4414102;32;20572;-64
2021/03/09 05:20:11;;;;;;;121.20;52.93;;;5.30;99.00;;;;;;4421099;32;20532;-64
2021/03/09 05:22:39;;;;;;;123.63;53.80;;;5.30;99.00;;;;;;4419653;32;20229;-63
2021/03/09 05:25:13;;;;;;;109.33;52.57;;;5.30;99.00;;;;;;4421262;32;20215;-65
2021/03/09 05:27:41;;;;;;;113.23;53.37;;;5.30;99.10;;;;;;4407648;32;20225;-64
2021/03/09 05:30:09;;;;;;;93.83;47.87;;;5.30;99.10;;;;;;4408120;32;20171;-64
2021/03/09 05:32:35;;;;;;;119.13;54.10;;;5.40;99.10;;;;;;4406755;32;20200;-64
2021/03/09 05:35:06;;;;;;;117.13;55.13;;;5.40;99.10;;;;;;4407988;32;20207;-63
2021/03/09 05:37:35;;;;;;;123.43;57.57;;;5.30;99.10;;;;;;4407982;32;20186;-64
2021/03/09 05:40:03;;;;;;;126.23;55.50;;;5.40;99.20;;;;;;4407560;32;20156;-64
2021/03/09 05:42:29;;;;;;;95.37;48.93;;;5.40;99.20;;;;;;4406522;32;20219;-63
2021/03/09 05:44:58;;;;;;;94.07;49.77;;;5.40;99.20;;;;;;4407583;32;20179;-63
2021/03/09 05:47:35;;;;;;;122.07;55.43;;;5.40;99.20;;;;;;4406535;32;20233;-63
2021/03/09 05:50:01;;;;;;;98.30;49.53;;;5.50;99.20;;;;;;4405509;32;20151;-63
2021/03/09 05:52:28;;;;;;;151.70;60.47;;;5.50;99.20;;;;;;4417439;32;20230;-63
2021/03/09 05:54:54;;;;;;;129.80;58.43;;;5.50;99.20;;;;;;4420895;32;20189;-63
2021/03/09 05:57:21;;;;;;;115.97;52.23;;;5.50;99.30;;;;;;4420763;32;20155;-63
2021/03/09 05:59:49;;;;;;;102.20;50.40;;;5.50;99.30;;;;;;4420580;32;20611;-63
2021/03/09 06:02:15;;;;;;;106.13;49.83;;;5.60;99.30;;;;;;4420070;32;20140;-63
2021/03/09 06:04:42;;;;;;;129.20;55.10;;;5.60;99.30;;;;;;4409708;32;20214;-63
2021/03/09 06:07:08;;;;;;;134.20;58.03;;;5.60;99.30;;;;;;4421524;32;20227;-63
2021/03/09 06:09:41;;;;;;;128.63;53.20;;;5.60;99.40;;;;;;4413400;32;20175;-63
2021/03/09 06:12:09;;;;;;;111.13;50.57;;;5.60;99.50;;;;;;4405607;32;20151;-63
2021/03/09 06:14:39;;;;;;;114.43;52.30;;;5.60;99.50;;;;;;4407401;32;20153;-63
2021/03/09 06:17:05;;;;;;;117.17;52.37;;;5.60;99.50;;;;;;4409210;32;20171;-65
2021/03/09 06:19:45;;;;;;;110.30;51.53;;;5.70;99.50;;;;;;4414994;32;20171;-65
2021/03/09 06:22:21;;;;;;;127.10;54.70;;;5.80;99.40;;;;;;4413887;32;20162;-65
2021/03/09 06:24:49;;;;;;;101.70;47.67;;;5.80;99.40;;;;;;4410331;32;20221;-65
2021/03/09 06:27:28;;;;;;;96.70;45.20;;;5.80;99.30;;;;;;4406170;32;20183;-67
2021/03/09 06:30:07;;;;;;;92.37;44.57;;;5.90;99.30;;;;;;4411926;32;20237;-65
2021/03/09 06:32:40;;;;;;;80.73;39.73;;;6.00;99.30;;;;;;4413110;32;20226;-64
2021/03/09 06:35:26;;;;;;;77.70;38.20;;;6.00;99.30;;;;;;4370191;32;1473336;-64
2021/03/09 06:37:52;;;;;;;74.27;37.50;;;6.00;99.30;;;;;;4418844;32;20215;-64
2021/03/09 06:40:20;;;;;;;72.30;34.83;;;6.00;99.40;;;;;;4417500;32;20275;-64
2021/03/09 06:42:47;;;;;;;62.97;33.93;;;6.00;99.40;;;;;;4418463;32;20163;-64
2021/03/09 06:45:15;;;;;;;74.10;35.20;;;6.00;99.40;;;;;;4418013;32;20185;-65
2021/03/09 06:47:43;;;;;;;68.37;31.80;;;5.90;99.40;;;;;;4416300;32;20505;-64
2021/03/09 06:50:12;;;;;;;58.30;28.93;;;6.00;99.40;;;;;;4417238;32;20482;-65
2021/03/09 06:52:39;;;;;;;43.63;23.37;;;6.00;99.40;;;;;;4413605;32;20207;-65
2021/03/09 06:55:09;;;;;;;38.27;20.17;;;6.00;99.30;;;;;;4410075;32;20277;-66
2021/03/09 06:57:36;;;;;;;38.53;19.13;;;6.00;99.20;;;;;;4415860;32;20178;-65
2021/03/09 07:00:05;;;;;;;32.60;16.77;;;6.00;99.10;;;;;;4414387;32;20190;-65
2021/03/09 07:02:33;;;;;;;23.37;13.40;;;6.00;99.10;;;;;;4413693;32;20644;-65
2021/03/09 07:05:05;;;;;;;26.30;12.40;;;6.00;99.00;;;;;;4410583;32;20614;-65
2021/03/09 07:07:34;;;;;;;21.23;10.80;;;6.00;99.00;;;;;;4411888;32;20155;-65
2021/03/09 07:10:05;;;;;;;18.83;10.23;;;6.00;99.00;;;;;;4412993;32;20209;-66
2021/03/09 07:12:31;;;;;;;28.57;9.73;;;5.90;98.90;;;;;;4413337;32;20233;-65
2021/03/09 07:14:59;;;;;;;14.43;8.17;;;6.00;99.00;;;;;;4409800;32;20174;-68
2021/03/09 07:17:31;;;;;;;19.93;7.97;;;6.00;98.90;;;;;;4413365;32;20206;-65
2021/03/09 07:19:59;;;;;;;16.13;7.17;;;6.00;98.90;;;;;;4405793;32;20168;-68
2021/03/09 07:22:27;;;;;;;11.03;7.77;;;6.00;98.90;;;;;;4405060;32;20219;-68
2021/03/09 07:25:03;;;;;;;19.50;8.30;;;6.10;98.80;;;;;;4405508;32;20178;-65
2021/03/09 07:27:44;;;;;;;16.60;7.23;;;6.10;98.80;;;;;;4410347;32;20187;-67
2021/03/09 07:30:14;;;;;;;14.40;5.70;;;6.20;98.70;;;;;;4407779;32;20180;-68
2021/03/09 07:33:06;;;;;;;15.27;6.03;;;6.20;98.40;;;;;;4408386;32;20235;-69
2021/03/09 07:36:19;;;;;;;13.67;5.33;;;6.20;98.40;;;;;;4410878;32;20512;-65
2021/03/09 07:38:47;;;;;;;11.90;5.57;;;6.40;98.20;;;;;;4362728;32;20160;-69
2021/03/09 07:44:49;;;;;;;9.90;4.63;;;6.40;97.30;;;;;;4323321;33;20351;-65
2021/03/09 07:47:33;;;;;;;6.87;4.67;;;6.40;97.40;;;;;;4281489;33;20280;-64
2021/03/09 08:22:19;;;;;;;11.33;2.70;;;7.10;95.80;;;;;;4277452;33;20324;-66
2021/03/09 08:25:41;;;;;;;11.33;2.60;;;7.00;95.70;;;;;;4320868;33;20653;-64
2021/03/09 08:29:01;;;;;;;;;;;;;;;;;;;;;
2021/03/09 08:35:37;;;;;;;5.50;3.13;;;7.00;96.40;;;;;;4303575;33;20170;-64
2021/03/09 08:38:50;;;;;;;9.27;3.03;;;7.40;95.90;;;;;;4299694;33;20240;-70
2021/03/09 08:47:43;;;;;;;5.90;3.33;;;8.40;92.70;;;;;;4357981;32;20261;-65
2021/03/09 08:50:09;;;;;;;7.20;3.43;;;8.30;93.00;;;;;;4356297;32;20286;-68
2021/03/09 08:52:41;;;;;;;9.00;3.80;;;8.40;92.90;;;;;;4360190;32;20187;-66
2021/03/09 08:55:08;;;;;;;8.90;3.93;;;8.50;93.20;;;;;;4359905;32;20185;-66
2021/03/09 08:57:34;;;;;;;6.03;3.13;;;9.00;92.70;;;;;;4362234;32;20159;-66
2021/03/09 09:00:07;;;;;;;6.93;3.30;;;8.50;91.70;;;;;;4354138;32;20161;-66
2021/03/09 09:02:39;;;;;;;7.07;2.70;;;8.70;92.90;;;;;;4354775;32;20191;-65
2021/03/09 09:05:07;;;;;;;4.97;2.90;;;9.30;91.80;;;;;;4360539;32;20239;-65
2021/03/09 09:07:35;;;;;;;6.87;2.90;;;9.30;90.80;;;;;;4364389;32;20697;-65
2021/03/09 09:10:07;;;;;;;3.90;3.03;;;9.60;90.60;;;;;;4358994;32;20247;-67
2021/03/09 09:12:36;;;;;;;6.30;3.80;;;9.80;90.10;;;;;;4357566;32;20165;-68
2021/03/09 09:15:19;;;;;;;6.37;3.67;;;9.60;89.00;;;;;;4373236;32;20167;-64
2021/03/09 09:17:52;;;;;;;9.77;4.73;;;9.90;89.60;;;;;;4401235;32;21275;-67
2021/03/09 09:20:27;;;;;;;10.00;5.37;;;10.00;87.00;;;;;;4405227;32;20252;-62
2021/03/09 09:23:06;;;;;;;10.23;6.00;;;9.70;87.80;;;;;;4404383;32;20210;-66
2021/03/09 09:25:37;;;;;;;6.43;5.03;;;9.00;90.00;;;;;;4402760;32;20595;-65
2021/03/09 09:28:05;;;;;;;9.67;4.40;;;8.70;90.40;;;;;;4404164;32;20156;-63
2021/03/09 09:30:41;;;;;;;9.63;4.23;;;8.60;91.30;;;;;;4405949;32;20176;-64
2021/03/09 09:33:11;;;;;;;10.10;5.27;;;8.30;90.90;;;;;;4405921;32;20157;-67
2021/03/09 09:35:40;;;;;;;8.37;4.93;;;8.20;91.50;;;;;;4403635;32;20588;-65
2021/03/09 09:38:08;;;;;;;6.83;4.87;;;8.20;92.00;;;;;;4402465;32;20167;-66
2021/03/09 09:40:36;;;;;;;11.73;5.07;;;8.10;92.20;;;;;;4403892;32;20156;-65
2021/03/09 09:43:06;;;;;;;6.50;5.60;;;7.80;91.60;;;;;;4403375;32;20212;-65
2021/03/09 09:45:39;;;;;;;10.63;6.53;;;7.70;92.10;;;;;;4402150;32;20226;-66
2021/03/09 09:48:09;;;;;;;7.73;5.77;;;7.60;92.10;;;;;;4402983;32;20596;-68
2021/03/09 09:50:36;;;;;;;6.80;5.70;;;7.60;92.10;;;;;;4406271;32;20152;-65
2021/03/09 09:53:03;;;;;;;6.80;4.27;;;7.80;92.00;;;;;;4402842;32;20678;-64
2021/03/09 09:55:31;;;;;;;6.83;3.60;;;8.00;92.20;;;;;;4396673;32;20175;-65
2021/03/09 09:57:59;;;;;;;5.33;4.00;;;8.10;92.10;;;;;;4394511;32;20170;-67
2021/03/09 10:00:28;;;;;;;4.50;3.70;;;8.10;91.60;;;;;;4391525;32;20268;-64
2021/03/09 10:03:15;;;;;;;6.87;3.57;;;7.80;91.60;;;;;;4390983;32;20157;-65
2021/03/09 10:05:46;;;;;;;5.30;2.67;;;7.80;91.90;;;;;;4392774;32;20144;-64
2021/03/09 10:08:34;;;;;;;4.60;3.20;;;7.80;91.70;;;;;;4394722;32;20508;-64
2021/03/09 10:11:03;;;;;;;4.63;3.80;;;7.60;92.30;;;;;;4393258;32;20201;-64
2021/03/09 10:13:31;;;;;;;6.10;3.47;;;7.50;92.40;;;;;;4394396;32;20195;-65
2021/03/09 10:15:58;;;;;;;4.37;3.67;;;7.60;92.60;;;;;;4396230;32;20226;-65
2021/03/09 10:18:27;;;;;;;4.07;3.33;;;7.80;92.80;;;;;;4397024;32;20160;-64
2021/03/09 10:21:06;;;;;;;6.33;2.90;;;8.00;91.70;;;;;;4398775;32;20494;-66
2021/03/09 10:23:33;;;;;;;3.17;2.47;;;8.20;91.50;;;;;;4392125;32;20213;-67
2021/03/09 10:26:03;;;;;;;7.53;2.37;;;8.10;90.80;;;;;;4392313;32;20174;-65
2021/03/09 10:28:32;;;;;;;6.70;2.60;;;8.00;90.50;;;;;;4392752;32;20206;-66
2021/03/09 10:30:58;;;;;;;5.43;2.13;;;8.10;91.10;;;;;;4392822;32;20234;-67
2021/03/09 10:33:28;;;;;;;4.37;2.13;;;8.40;90.30;;;;;;4396656;32;20183;-67
2021/03/09 10:36:07;;;;;;;3.87;1.90;;;8.80;88.80;;;;;;4392679;32;20156;-65
2021/03/09 10:38:34;;;;;;;2.73;2.00;;;9.10;88.70;;;;;;4392539;32;20587;-66
2021/03/09 10:41:03;;;;;;;5.47;2.20;;;9.20;86.50;;;;;;4395898;32;20156;-68
2021/03/09 10:43:54;;;;;;;2.77;1.60;;;9.30;86.10;;;;;;4393321;32;20160;-67
2021/03/09 10:46:22;;;;;;;4.27;2.10;;;9.60;86.20;;;;;;4326181;33;20184;-68
2021/03/09 10:48:52;;;;;;;3.83;1.87;;;10.20;85.60;;;;;;4325323;33;20240;-63
2021/03/09 10:51:20;;;;;;;3.23;1.30;;;10.60;82.10;;;;;;4327144;33;20267;-68
2021/03/09 10:53:47;;;;;;;2.90;1.37;;;10.50;81.80;;;;;;4326883;33;20169;-66
2021/03/09 10:56:14;;;;;;;2.77;1.40;;;10.20;81.60;;;;;;4325819;33;20182;-66
2021/03/09 10:58:41;;;;;;;2.30;1.30;;;10.00;83.20;;;;;;4326844;33;20241;-67
2021/03/09 11:01:08;;;;;;;1.50;1.30;;;9.70;84.20;;;;;;4326152;33;20177;-65
2021/03/09 11:03:34;;;;;;;3.27;1.30;;;9.40;84.30;;;;;;4326579;33;20161;-66
2021/03/09 11:06:01;;;;;;;2.97;1.40;;;9.10;85.60;;;;;;4326108;33;20161;-66
2021/03/09 11:08:28;;;;;;;3.87;1.80;;;9.10;86.00;;;;;;4325812;33;20197;-64
2021/03/09 11:10:55;;;;;;;2.87;1.37;;;9.10;86.90;;;;;;4326656;33;20165;-64
2021/03/09 11:13:22;;;;;;;1.73;1.33;;;8.60;87.20;;;;;;4325644;33;20185;-68
2021/03/09 11:15:48;;;;;;;3.37;1.30;;;8.20;88.80;;;;;;4325453;33;20189;-68
2021/03/09 11:18:15;;;;;;;5.47;1.80;;;8.00;90.10;;;;;;4327297;33;20291;-64
2021/03/09 11:20:42;;;;;;;3.10;1.50;;;7.80;90.90;;;;;;4339102;33;20233;-63
2021/03/09 11:23:09;;;;;;;2.03;1.40;;;7.60;91.40;;;;;;4374909;32;20160;-66
2021/03/09 11:25:37;;;;;;;3.57;1.50;;;7.50;92.50;;;;;;4397548;32;20160;-66
2021/03/09 11:28:04;;;;;;;3.30;1.20;;;7.60;92.40;;;;;;4398914;32;20170;-64
2021/03/09 11:30:30;;;;;;;8.13;1.77;;;7.70;92.20;;;;;;4398266;32;20156;-67
2021/03/09 11:33:00;;;;;;;2.07;1.20;;;7.80;92.10;;;;;;4400720;32;20179;-67
2021/03/09 11:35:26;;;;;;;1.00;0.90;;;7.80;92.30;;;;;;4390686;32;20152;-66
2021/03/09 11:37:53;;;;;;;1.63;1.23;;;8.10;92.10;;;;;;4392448;32;20148;-66
2021/03/09 11:40:20;;;;;;;2.50;0.60;;;8.20;91.50;;;;;;4396031;32;20191;-65
2021/03/09 11:42:46;;;;;;;1.87;1.03;;;8.30;90.80;;;;;;4396145;32;20172;-68
2021/03/09 11:45:15;;;;;;;1.30;0.80;;;8.30;90.20;;;;;;4400627;32;20556;-67
2021/03/09 11:47:43;;;;;;;1.30;1.00;;;8.50;90.50;;;;;;4399087;32;20572;-66
2021/03/09 11:50:10;;;;;;;2.67;0.97;;;8.30;89.20;;;;;;4398845;32;20187;-66
2021/03/09 11:52:38;;;;;;;1.13;0.80;;;8.20;90.20;;;;;;4399705;32;20565;-68
2021/03/09 11:55:09;;;;;;;1.10;1.00;;;8.50;89.00;;;;;;4397724;32;20140;-68
2021/03/09 11:57:36;;;;;;;1.50;1.00;;;8.60;88.10;;;;;;4400787;32;20208;-66
2021/03/09 12:00:04;;;;;;;2.40;1.10;;;8.60;87.70;;;;;;4396324;32;20171;-69
2021/03/09 12:02:30;;;;;;;2.17;1.20;;;9.00;88.30;;;;;;4396098;32;20245;-66
2021/03/09 12:04:56;;;;;;;1.37;1.27;;;9.00;86.30;;;;;;4399677;32;20574;-67
2021/03/09 12:07:25;;;;;;;2.47;1.23;;;8.90;87.20;;;;;;4399112;32;20156;-66
2021/03/09 12:09:52;;;;;;;5.07;1.60;;;8.40;87.20;;;;;;4398734;32;20172;-67
2021/03/09 12:12:18;;;;;;;2.90;1.40;;;8.10;89.20;;;;;;4397353;32;20158;-65
2021/03/09 12:14:46;;;;;;;2.00;1.80;;;8.10;89.90;;;;;;4396937;32;20515;-66
2021/03/09 12:17:15;;;;;;;2.90;1.40;;;8.10;90.00;;;;;;4406958;32;20156;-68
2021/03/09 12:19:41;;;;;;;2.20;1.80;;;8.20;89.30;;;;;;4405124;32;20171;-67
2021/03/09 12:22:08;;;;;;;1.73;1.50;;;8.20;89.80;;;;;;4406585;32;20156;-66
2021/03/09 12:24:34;;;;;;;2.07;1.57;;;8.40;89.20;;;;;;4406123;32;20397;-63
2021/03/09 12:27:01;;;;;;;1.93;1.77;;;8.60;88.10;;;;;;4406228;32;20220;-63
2021/03/09 12:29:28;;;;;;;3.07;1.87;;;8.70;86.00;;;;;;4405928;32;20563;-65
2021/03/09 12:31:55;;;;;;;3.33;1.77;;;8.90;87.20;;;;;;4406032;32;20163;-66
2021/03/09 12:34:21;;;;;;;2.40;1.90;;;9.00;85.60;;;;;;4405853;32;20446;-67
2021/03/09 12:36:52;;;;;;;4.07;2.07;;;8.80;84.50;;;;;;4405493;32;20147;-66
2021/03/09 12:39:18;;;;;;;3.40;1.80;;;8.70;86.00;;;;;;4405234;32;20226;-68
2021/03/09 12:41:45;;;;;;;6.27;2.10;;;8.70;84.60;;;;;;4405490;32;20550;-66
2021/03/09 12:44:11;;;;;;;3.07;2.77;;;8.90;85.70;;;;;;4405224;32;20237;-65
2021/03/09 12:46:38;;;;;;;4.27;2.60;;;9.00;83.30;;;;;;4406987;32;20144;-67
2021/03/09 12:49:05;;;;;;;4.70;2.70;;;9.10;85.40;;;;;;4406441;32;20170;-66
2021/03/09 12:51:32;;;;;;;5.83;2.93;;;8.80;85.00;;;;;;4405179;32;20163;-65
2021/03/09 12:54:02;;;;;;;4.97;2.50;;;8.80;84.40;;;;;;4403018;32;20209;-65
2021/03/09 12:56:31;;;;;;;5.70;3.10;;;8.60;84.80;;;;;;4395729;32;20174;-65
2021/03/09 12:58:58;;;;;;;6.43;2.90;;;8.70;85.30;;;;;;4397572;32;20159;-66
2021/03/09 13:01:24;;;;;;;3.70;2.73;;;8.60;87.10;;;;;;4399601;32;20600;-65
2021/03/09 13:03:51;;;;;;;4.37;2.77;;;8.60;85.70;;;;;;4398829;32;20155;-67
2021/03/09 13:06:19;;;;;;;8.37;3.00;;;8.70;86.40;;;;;;4396508;32;20176;-65
2021/03/09 13:08:45;;;;;;;8.30;3.10;;;8.70;86.80;;;;;;4394410;32;20585;-67
2021/03/09 13:11:11;;;;;;;6.63;3.50;;;8.50;86.60;;;;;;4397312;32;20194;-68
2021/03/09 13:13:38;;;;;;;3.93;3.13;;;8.60;86.20;;;;;;4397728;32;20156;-65
2021/03/09 13:16:05;;;;;;;5.07;3.03;;;8.70;87.20;;;;;;4400216;32;20171;-67
2021/03/09 13:18:31;;;;;;;6.53;3.43;;;8.80;86.90;;;;;;4399507;32;20492;-67
2021/03/09 13:20:58;;;;;;;4.00;3.03;;;8.80;85.50;;;;;;4397762;32;20160;-65
2021/03/09 13:23:25;;;;;;;5.50;3.43;;;8.60;86.40;;;;;;4397734;32;20660;-64
2021/03/09 13:25:56;;;;;;;4.07;3.13;;;8.80;86.30;;;;;;4398644;32;20216;-68
2021/03/09 13:28:25;;;;;;;3.77;3.30;;;9.10;86.10;;;;;;4397212;32;20157;-68
2021/03/09 13:30:59;;;;;;;6.00;3.50;;;9.20;84.40;;;;;;4398059;32;20147;-65
2021/03/09 13:33:26;;;;;;;8.47;3.40;;;9.10;84.90;;;;;;4387735;32;21017;-64
2021/03/09 13:35:53;;;;;;;5.20;3.70;;;9.10;84.70;;;;;;4396368;32;20211;-65
2021/03/09 13:38:20;;;;;;;9.07;4.03;;;9.00;85.20;;;;;;4397976;32;20580;-65
2021/03/09 13:40:48;;;;;;;8.43;3.93;;;9.10;85.40;;;;;;4392214;32;20219;-67
2021/03/09 13:43:14;;;;;;;6.93;3.60;;;9.10;85.60;;;;;;4395558;32;20219;-64
2021/03/09 13:45:43;;;;;;;6.13;4.00;;;9.10;85.30;;;;;;4392540;32;20211;-67